EWG10 EDDK-EDDV
Flight info
| Callsign | EWG10 |
|---|---|
| Flight time | 0h 43m |
| Altitude | 21000 |
| Route | PODIP2Q PODIP Y867 WRB WRB1Z |
| Aircraft | A320/M-SDE3FGHIRWY/LB1 |
Departure
| Time | 2026-05-01 11:25 |
|---|---|
| Airport | Cologne Bonn Airport (EDDK) |
Arrival
| Time | 2026-05-01 12:08 |
|---|---|
| Airport | Hannover Airport (EDDV) |
| Time | Latitude | Longitude | Altitude | Speed | Heading |
|---|---|---|---|---|---|
| 2026-05-01 10:27 | 50.87834 | 7.12452 | 230 ft | 0 kts | 287° |
| 2026-05-01 11:18 | 50.87832 | 7.12461 | 231 ft | 4 kts | 287° |
| 2026-05-01 11:18 | 50.87824 | 7.12502 | 232 ft | 4 kts | 288° |
| 2026-05-01 11:18 | 50.87817 | 7.12533 | 232 ft | 4 kts | 288° |
| 2026-05-01 11:18 | 50.87810 | 7.12564 | 231 ft | 4 kts | 345° |
| 2026-05-01 11:19 | 50.87788 | 7.12560 | 231 ft | 4 kts | 19° |
| 2026-05-01 11:19 | 50.87780 | 7.12555 | 232 ft | 0 kts | 18° |
| 2026-05-01 11:21 | 50.87786 | 7.12558 | 231 ft | 2 kts | 18° |
| 2026-05-01 11:21 | 50.87810 | 7.12571 | 230 ft | 5 kts | 18° |
| 2026-05-01 11:21 | 50.87843 | 7.12588 | 230 ft | 5 kts | 19° |
| 2026-05-01 11:21 | 50.87869 | 7.12603 | 232 ft | 3 kts | 18° |
| 2026-05-01 11:22 | 50.87887 | 7.12612 | 230 ft | 2 kts | 18° |
| 2026-05-01 11:22 | 50.87910 | 7.12624 | 230 ft | 5 kts | 18° |
| 2026-05-01 11:22 | 50.87951 | 7.12657 | 230 ft | 10 kts | 34° |
| 2026-05-01 11:22 | 50.87993 | 7.12742 | 234 ft | 8 kts | 66° |
| 2026-05-01 11:23 | 50.88005 | 7.12796 | 239 ft | 4 kts | 74° |
| 2026-05-01 11:23 | 50.88005 | 7.12865 | 237 ft | 7 kts | 88° |
| 2026-05-01 11:23 | 50.88023 | 7.12921 | 238 ft | 4 kts | 57° |
| 2026-05-01 11:23 | 50.88014 | 7.12958 | 238 ft | 6 kts | 133° |
| 2026-05-01 11:24 | 50.87982 | 7.13004 | 240 ft | 15 kts | 137° |
| 2026-05-01 11:24 | 50.87778 | 7.13297 | 246 ft | 72 kts | 137° |
| 2026-05-01 11:24 | 50.86495 | 7.15173 | 455 ft | 156 kts | 135° |
| 2026-05-01 11:25 | 50.85760 | 7.16425 | 1193 ft | 151 kts | 130° |
| 2026-05-01 11:25 | 50.84144 | 7.18782 | 2444 ft | 162 kts | 140° |
| 2026-05-01 11:25 | 50.83239 | 7.19880 | 3074 ft | 165 kts | 141° |
| 2026-05-01 11:26 | 50.82333 | 7.21011 | 3685 ft | 167 kts | 133° |
| 2026-05-01 11:26 | 50.81409 | 7.24321 | 4904 ft | 172 kts | 99° |
| 2026-05-01 11:26 | 50.81240 | 7.26364 | 5008 ft | 203 kts | 101° |
| 2026-05-01 11:27 | 50.81037 | 7.28714 | 5240 ft | 229 kts | 100° |
| 2026-05-01 11:27 | 50.80808 | 7.31322 | 5766 ft | 247 kts | 99° |
| 2026-05-01 11:27 | 50.80570 | 7.34055 | 6644 ft | 254 kts | 99° |
| 2026-05-01 11:27 | 50.80332 | 7.36843 | 7470 ft | 258 kts | 99° |
| 2026-05-01 11:28 | 50.80089 | 7.39667 | 8309 ft | 262 kts | 99° |
| 2026-05-01 11:28 | 50.79838 | 7.42535 | 9149 ft | 265 kts | 99° |
| 2026-05-01 11:28 | 50.79582 | 7.45439 | 9969 ft | 269 kts | 98° |
| 2026-05-01 11:29 | 50.79040 | 7.51572 | 10922 ft | 302 kts | 98° |
| 2026-05-01 11:29 | 50.78955 | 7.54968 | 11169 ft | 323 kts | 86° |
| 2026-05-01 11:29 | 50.80497 | 7.61845 | 12479 ft | 341 kts | 58° |
| 2026-05-01 11:30 | 50.82070 | 7.64685 | 13238 ft | 347 kts | 45° |
| 2026-05-01 11:30 | 50.83878 | 7.67242 | 13979 ft | 351 kts | 44° |
| 2026-05-01 11:30 | 50.85710 | 7.69819 | 14666 ft | 354 kts | 44° |
| 2026-05-01 11:30 | 50.87556 | 7.72416 | 15335 ft | 357 kts | 44° |
| 2026-05-01 11:31 | 50.89390 | 7.75006 | 15956 ft | 360 kts | 44° |
| 2026-05-01 11:31 | 50.91290 | 7.77699 | 16606 ft | 363 kts | 44° |
| 2026-05-01 11:31 | 50.93142 | 7.80358 | 17229 ft | 365 kts | 47° |
| 2026-05-01 11:31 | 50.94788 | 7.83421 | 17850 ft | 366 kts | 57° |
| 2026-05-01 11:32 | 50.96116 | 7.86871 | 18483 ft | 368 kts | 61° |
| 2026-05-01 11:32 | 50.97415 | 7.90394 | 19042 ft | 371 kts | 61° |
| 2026-05-01 11:32 | 50.98726 | 7.93941 | 19600 ft | 374 kts | 61° |
| 2026-05-01 11:32 | 51.00048 | 7.97520 | 20152 ft | 377 kts | 60° |
| 2026-05-01 11:33 | 51.01379 | 8.01128 | 20719 ft | 380 kts | 60° |
| 2026-05-01 11:33 | 51.02733 | 8.04807 | 21193 ft | 383 kts | 60° |
| 2026-05-01 11:33 | 51.04061 | 8.08416 | 21341 ft | 384 kts | 60° |
| 2026-05-01 11:33 | 51.05426 | 8.12127 | 21371 ft | 392 kts | 60° |
| 2026-05-01 11:34 | 51.06802 | 8.15872 | 21371 ft | 393 kts | 60° |
| 2026-05-01 11:34 | 51.08182 | 8.19630 | 21371 ft | 393 kts | 60° |
| 2026-05-01 11:34 | 51.09561 | 8.23390 | 21373 ft | 393 kts | 60° |
| 2026-05-01 11:34 | 51.10936 | 8.27151 | 21370 ft | 393 kts | 61° |
| 2026-05-01 11:35 | 51.12305 | 8.30916 | 21371 ft | 393 kts | 61° |
| 2026-05-01 11:35 | 51.13672 | 8.34689 | 21374 ft | 393 kts | 61° |
| 2026-05-01 11:35 | 51.15033 | 8.38459 | 21371 ft | 393 kts | 61° |
| 2026-05-01 11:35 | 51.16395 | 8.42232 | 21372 ft | 393 kts | 61° |
| 2026-05-01 11:36 | 51.17754 | 8.46011 | 21376 ft | 393 kts | 61° |
| 2026-05-01 11:36 | 51.19111 | 8.49786 | 21376 ft | 393 kts | 61° |
| 2026-05-01 11:36 | 51.20579 | 8.53459 | 21374 ft | 394 kts | 54° |
| 2026-05-01 11:36 | 51.22328 | 8.56824 | 21375 ft | 394 kts | 51° |
| 2026-05-01 11:37 | 51.24092 | 8.60167 | 21373 ft | 394 kts | 51° |
| 2026-05-01 11:37 | 51.25850 | 8.63515 | 21374 ft | 394 kts | 51° |
| 2026-05-01 11:37 | 51.27607 | 8.66868 | 21370 ft | 394 kts | 51° |
| 2026-05-01 11:37 | 51.29369 | 8.70231 | 21372 ft | 394 kts | 51° |
| 2026-05-01 11:38 | 51.31128 | 8.73588 | 21370 ft | 394 kts | 51° |
| 2026-05-01 11:38 | 51.32886 | 8.76946 | 21371 ft | 395 kts | 51° |
| 2026-05-01 11:38 | 51.34645 | 8.80314 | 21370 ft | 395 kts | 51° |
| 2026-05-01 11:38 | 51.36402 | 8.83690 | 21371 ft | 395 kts | 51° |
| 2026-05-01 11:39 | 51.38157 | 8.87069 | 21367 ft | 395 kts | 51° |
| 2026-05-01 11:39 | 51.39915 | 8.90456 | 21367 ft | 395 kts | 51° |
| 2026-05-01 11:39 | 51.41669 | 8.93841 | 21369 ft | 395 kts | 51° |
| 2026-05-01 11:39 | 51.43425 | 8.97233 | 21380 ft | 396 kts | 51° |
| 2026-05-01 11:40 | 51.45318 | 9.00378 | 21392 ft | 390 kts | 38° |
| 2026-05-01 11:40 | 51.47701 | 9.02409 | 21394 ft | 392 kts | 19° |
| 2026-05-01 11:40 | 51.50361 | 9.03453 | 21392 ft | 393 kts | 14° |
| 2026-05-01 11:40 | 51.53034 | 9.04361 | 21331 ft | 389 kts | 14° |
| 2026-05-01 11:41 | 51.55662 | 9.05243 | 20904 ft | 384 kts | 14° |
| 2026-05-01 11:41 | 51.58271 | 9.06115 | 20429 ft | 381 kts | 14° |
| 2026-05-01 11:41 | 51.60866 | 9.06976 | 19956 ft | 380 kts | 14° |
| 2026-05-01 11:41 | 51.63443 | 9.07827 | 19478 ft | 378 kts | 14° |
| 2026-05-01 11:42 | 51.66012 | 9.08670 | 19019 ft | 375 kts | 14° |
| 2026-05-01 11:42 | 51.68564 | 9.09503 | 18636 ft | 371 kts | 14° |
| 2026-05-01 11:42 | 51.71053 | 9.10306 | 18502 ft | 359 kts | 14° |
| 2026-05-01 11:42 | 51.73465 | 9.11081 | 18362 ft | 347 kts | 14° |
| 2026-05-01 11:43 | 51.75798 | 9.11820 | 18228 ft | 337 kts | 14° |
| 2026-05-01 11:43 | 51.78063 | 9.12535 | 18093 ft | 327 kts | 14° |
| 2026-05-01 11:43 | 51.80265 | 9.13225 | 17958 ft | 318 kts | 14° |
| 2026-05-01 11:44 | 51.84489 | 9.14530 | 17685 ft | 300 kts | 14° |
| 2026-05-01 11:44 | 51.86520 | 9.15151 | 17553 ft | 293 kts | 14° |
| 2026-05-01 11:44 | 51.88493 | 9.15749 | 17393 ft | 286 kts | 14° |
| 2026-05-01 11:44 | 51.90438 | 9.16334 | 17160 ft | 283 kts | 14° |
| 2026-05-01 11:45 | 51.92368 | 9.16913 | 16857 ft | 281 kts | 14° |
| 2026-05-01 11:45 | 51.94291 | 9.17491 | 16550 ft | 281 kts | 14° |
| 2026-05-01 11:45 | 51.96209 | 9.18063 | 16282 ft | 280 kts | 14° |
| 2026-05-01 11:45 | 51.98122 | 9.18631 | 16023 ft | 279 kts | 14° |
| 2026-05-01 11:46 | 52.00041 | 9.19201 | 15607 ft | 284 kts | 14° |
| 2026-05-01 11:46 | 52.01991 | 9.19781 | 15112 ft | 284 kts | 14° |
| 2026-05-01 11:46 | 52.03927 | 9.20353 | 14608 ft | 282 kts | 14° |
| 2026-05-01 11:46 | 52.05854 | 9.20919 | 14107 ft | 281 kts | 14° |
| 2026-05-01 11:47 | 52.07776 | 9.21479 | 13544 ft | 280 kts | 14° |
| 2026-05-01 11:47 | 52.09690 | 9.22038 | 13002 ft | 279 kts | 14° |
| 2026-05-01 11:47 | 52.11594 | 9.22592 | 12452 ft | 277 kts | 14° |
| 2026-05-01 11:47 | 52.13492 | 9.23141 | 11899 ft | 277 kts | 14° |
| 2026-05-01 11:48 | 52.15390 | 9.23694 | 11351 ft | 276 kts | 14° |
| 2026-05-01 11:48 | 52.17274 | 9.24241 | 10812 ft | 275 kts | 14° |
| 2026-05-01 11:48 | 52.19136 | 9.24783 | 10456 ft | 266 kts | 14° |
| 2026-05-01 11:48 | 52.20938 | 9.25304 | 10120 ft | 261 kts | 14° |
| 2026-05-01 11:49 | 52.22719 | 9.25809 | 9597 ft | 259 kts | 14° |
| 2026-05-01 11:49 | 52.24491 | 9.26324 | 9050 ft | 258 kts | 14° |
| 2026-05-01 11:49 | 52.26255 | 9.26844 | 8482 ft | 258 kts | 14° |
| 2026-05-01 11:49 | 52.28021 | 9.27373 | 7931 ft | 257 kts | 14° |
| 2026-05-01 11:50 | 52.29774 | 9.27905 | 7392 ft | 256 kts | 14° |
| 2026-05-01 11:50 | 52.31521 | 9.28439 | 6848 ft | 254 kts | 14° |
| 2026-05-01 11:50 | 52.33243 | 9.28976 | 6385 ft | 250 kts | 14° |
| 2026-05-01 11:50 | 52.34949 | 9.29506 | 5942 ft | 248 kts | 14° |
| 2026-05-01 11:51 | 52.36642 | 9.30038 | 5611 ft | 248 kts | 14° |
| 2026-05-01 11:51 | 52.38331 | 9.30569 | 5309 ft | 246 kts | 14° |
| 2026-05-01 11:51 | 52.40007 | 9.31097 | 4944 ft | 245 kts | 14° |
| 2026-05-01 11:51 | 52.41680 | 9.31631 | 4686 ft | 244 kts | 13° |
| 2026-05-01 11:52 | 52.43344 | 9.32223 | 4259 ft | 247 kts | 22° |
| 2026-05-01 11:52 | 52.44752 | 9.33740 | 3778 ft | 243 kts | 54° |
| 2026-05-01 11:52 | 52.45692 | 9.36032 | 3287 ft | 244 kts | 63° |
| 2026-05-01 11:52 | 52.46524 | 9.38433 | 3011 ft | 237 kts | 65° |
| 2026-05-01 11:53 | 52.47302 | 9.40730 | 2963 ft | 222 kts | 64° |
| 2026-05-01 11:53 | 52.47853 | 9.42958 | 2973 ft | 200 kts | 88° |
| 2026-05-01 11:53 | 52.47574 | 9.45050 | 2918 ft | 186 kts | 126° |
| 2026-05-01 11:53 | 52.46545 | 9.46388 | 2476 ft | 196 kts | 146° |
| 2026-05-01 11:54 | 52.45814 | 9.48102 | 2355 ft | 186 kts | 97° |
| 2026-05-01 11:54 | 52.45969 | 9.50481 | 2804 ft | 229 kts | 82° |
| 2026-05-01 11:54 | 52.45962 | 9.53256 | 3320 ft | 251 kts | 98° |
| 2026-05-01 11:54 | 52.45842 | 9.55965 | 3311 ft | 226 kts | 91° |
| 2026-05-01 11:55 | 52.45837 | 9.58424 | 3182 ft | 204 kts | 93° |
| 2026-05-01 11:55 | 52.45872 | 9.60700 | 3368 ft | 208 kts | 89° |
| 2026-05-01 11:55 | 52.46161 | 9.63186 | 3613 ft | 237 kts | 67° |
| 2026-05-01 11:55 | 52.47257 | 9.65352 | 3884 ft | 263 kts | 38° |
| 2026-05-01 11:56 | 52.48933 | 9.66461 | 4010 ft | 256 kts | 10° |
| 2026-05-01 11:56 | 52.50700 | 9.66249 | 3268 ft | 260 kts | 341° |
| 2026-05-01 11:56 | 52.52384 | 9.65040 | 3044 ft | 267 kts | 335° |
| 2026-05-01 11:56 | 52.54081 | 9.63668 | 3014 ft | 270 kts | 334° |
| 2026-05-01 11:57 | 52.55731 | 9.62311 | 3001 ft | 253 kts | 334° |
| 2026-05-01 11:57 | 52.56710 | 9.61357 | 2991 ft | 244 kts | 320° |
| 2026-05-01 11:57 | 52.57836 | 9.58252 | 3016 ft | 240 kts | 280° |
| 2026-05-01 11:57 | 52.58095 | 9.55573 | 3007 ft | 240 kts | 274° |
| 2026-05-01 11:58 | 52.58301 | 9.52824 | 2992 ft | 239 kts | 274° |
| 2026-05-01 11:58 | 52.58490 | 9.50113 | 2989 ft | 238 kts | 274° |
| 2026-05-01 11:58 | 52.58876 | 9.44749 | 2997 ft | 240 kts | 275° |
| 2026-05-01 11:59 | 52.59067 | 9.42037 | 2993 ft | 239 kts | 274° |
| 2026-05-01 11:59 | 52.59255 | 9.39286 | 2970 ft | 238 kts | 274° |
| 2026-05-01 11:59 | 52.59441 | 9.36571 | 2985 ft | 239 kts | 275° |
| 2026-05-01 12:00 | 52.59049 | 9.31404 | 2984 ft | 229 kts | 230° |
| 2026-05-01 12:00 | 52.57810 | 9.29827 | 2970 ft | 221 kts | 195° |
| 2026-05-01 12:00 | 52.54800 | 9.29000 | 2981 ft | 220 kts | 184° |
| 2026-05-01 12:01 | 52.53273 | 9.28710 | 2993 ft | 221 kts | 184° |
| 2026-05-01 12:01 | 52.52245 | 9.28511 | 2972 ft | 220 kts | 184° |
| 2026-05-01 12:01 | 52.50741 | 9.28215 | 2997 ft | 215 kts | 184° |
| 2026-05-01 12:01 | 52.48775 | 9.28046 | 2976 ft | 211 kts | 166° |
| 2026-05-01 12:02 | 52.47541 | 9.29191 | 2975 ft | 206 kts | 133° |
| 2026-05-01 12:02 | 52.46948 | 9.30448 | 2978 ft | 207 kts | 121° |
| 2026-05-01 12:02 | 52.46390 | 9.33311 | 2980 ft | 196 kts | 96° |
| 2026-05-01 12:02 | 52.46351 | 9.34797 | 3026 ft | 192 kts | 95° |
| 2026-05-01 12:03 | 52.46301 | 9.36895 | 2975 ft | 177 kts | 95° |
| 2026-05-01 12:03 | 52.46252 | 9.38865 | 2974 ft | 170 kts | 96° |
| 2026-05-01 12:03 | 52.46204 | 9.40800 | 2990 ft | 171 kts | 95° |
| 2026-05-01 12:03 | 52.46154 | 9.42748 | 2997 ft | 171 kts | 93° |
| 2026-05-01 12:04 | 52.46104 | 9.44694 | 2885 ft | 171 kts | 96° |
| 2026-05-01 12:04 | 52.46056 | 9.46627 | 2722 ft | 172 kts | 95° |
| 2026-05-01 12:04 | 52.46005 | 9.48590 | 2475 ft | 171 kts | 96° |
| 2026-05-01 12:04 | 52.45954 | 9.50566 | 2266 ft | 172 kts | 94° |
| 2026-05-01 12:05 | 52.45904 | 9.52479 | 2043 ft | 165 kts | 96° |
| 2026-05-01 12:05 | 52.45809 | 9.56143 | 1573 ft | 152 kts | 95° |
| 2026-05-01 12:05 | 52.45764 | 9.57802 | 1373 ft | 141 kts | 97° |
| 2026-05-01 12:06 | 52.45722 | 9.59371 | 1209 ft | 137 kts | 94° |
| 2026-05-01 12:06 | 52.45681 | 9.60924 | 1024 ft | 135 kts | 97° |
| 2026-05-01 12:06 | 52.45640 | 9.62450 | 853 ft | 135 kts | 94° |
| 2026-05-01 12:06 | 52.45598 | 9.64000 | 664 ft | 135 kts | 92° |
| 2026-05-01 12:07 | 52.45556 | 9.65536 | 480 ft | 135 kts | 93° |
| 2026-05-01 12:07 | 52.45515 | 9.67062 | 308 ft | 134 kts | 95° |
| 2026-05-01 12:07 | 52.45480 | 9.68562 | 211 ft | 122 kts | 92° |
| 2026-05-01 12:07 | 52.45438 | 9.69715 | 183 ft | 64 kts | 93° |
| 2026-05-01 12:08 | 52.45429 | 9.70124 | 182 ft | 28 kts | 91° |
| 2026-05-01 12:08 | 52.45422 | 9.70440 | 186 ft | 26 kts | 91° |
| 2026-05-01 12:08 | 52.45437 | 9.70667 | 192 ft | 4 kts | 38° |
| 2026-05-01 12:08 | 52.45445 | 9.70668 | 190 ft | 3 kts | 2° |
| 2026-05-01 12:09 | 52.45467 | 9.70666 | 187 ft | 3 kts | 358° |
| 2026-05-01 12:09 | 52.45508 | 9.70666 | 190 ft | 11 kts | 0° |
| 2026-05-01 12:09 | 52.45594 | 9.70668 | 190 ft | 12 kts | 1° |
| 2026-05-01 12:09 | 52.45653 | 9.70578 | 183 ft | 14 kts | 269° |
| 2026-05-01 12:10 | 52.45655 | 9.70407 | 184 ft | 10 kts | 272° |
| 2026-05-01 12:10 | 52.45655 | 9.70402 | 184 ft | 0 kts | 272° |
| 2026-05-01 12:13 | 52.45656 | 9.70372 | 185 ft | 2 kts | 271° |
| 2026-05-01 12:13 | 52.45656 | 9.70361 | 185 ft | 0 kts | 271° |
| 2026-05-01 12:13 | 52.45657 | 9.70315 | 185 ft | 10 kts | 270° |
| 2026-05-01 12:13 | 52.45659 | 9.70181 | 191 ft | 12 kts | 274° |
| 2026-05-01 12:14 | 52.45669 | 9.69944 | 196 ft | 29 kts | 273° |
| 2026-05-01 12:14 | 52.45673 | 9.69604 | 196 ft | 31 kts | 273° |
| 2026-05-01 12:14 | 52.45764 | 9.69363 | 180 ft | 24 kts | 261° |
| 2026-05-01 12:14 | 52.45822 | 9.69175 | 179 ft | 20 kts | 332° |
| 2026-05-01 12:15 | 52.45927 | 9.69187 | 178 ft | 13 kts | 79° |
| 2026-05-01 12:15 | 52.45920 | 9.69291 | 178 ft | 0 kts | 98° |
| 2026-05-01 12:16 | 52.45920 | 9.69285 | 178 ft | 0 kts | 98° |
| 2026-05-01 12:16 | 52.45920 | 9.69286 | 178 ft | 0 kts | 98° |